createdAt,value
2023-04-27T00:00:11.007Z,29.07
2023-04-27T00:01:11.007Z,29.06
2023-04-27T00:02:11.107Z,29.13
2023-04-27T00:03:11.336Z,29.05
2023-04-27T00:04:11.346Z,29.10
2023-04-27T00:05:11.580Z,29.04
2023-04-27T00:06:11.443Z,29.05
2023-04-27T00:07:11.400Z,29.11
2023-04-27T00:08:11.424Z,29.12
2023-04-27T00:09:11.700Z,29.04
2023-04-27T00:10:11.559Z,28.97
2023-04-27T00:11:11.648Z,29.05
2023-04-27T00:12:11.673Z,29.07
2023-04-27T00:13:11.700Z,28.96
2023-04-27T00:14:11.762Z,28.98
2023-04-27T00:15:11.815Z,29.01
2023-04-27T00:16:11.885Z,29.11
2023-04-27T00:17:11.933Z,29.06
2023-04-27T00:18:12.002Z,29.06
2023-04-27T00:19:12.255Z,29.04
2023-04-27T00:20:12.083Z,29.00
2023-04-27T00:21:12.145Z,28.99
2023-04-27T00:22:12.214Z,29.11
2023-04-27T00:23:12.250Z,29.19
2023-04-27T00:24:12.318Z,29.13
2023-04-27T00:25:12.374Z,29.05
2023-04-27T00:26:12.416Z,29.19
2023-04-27T00:27:12.459Z,29.21
2023-04-27T00:28:12.543Z,29.19
2023-04-27T00:29:12.763Z,29.20
2023-04-27T00:30:12.619Z,29.16
2023-04-27T00:31:12.707Z,29.03
2023-04-27T00:32:12.729Z,29.17
2023-04-27T00:33:12.790Z,29.20
2023-04-27T00:34:12.819Z,29.21
2023-04-27T00:35:12.906Z,29.21
2023-04-27T00:36:12.943Z,29.11
2023-04-27T00:37:13.034Z,29.16
2023-04-27T00:38:13.034Z,29.05
2023-04-27T00:39:13.321Z,29.09
2023-04-27T00:40:13.153Z,29.22
2023-04-27T00:41:13.183Z,29.13
2023-04-27T00:42:13.251Z,29.22
2023-04-27T00:43:13.291Z,29.27
2023-04-27T00:44:13.373Z,29.29
2023-04-27T00:45:13.439Z,29.27
2023-04-27T00:46:13.500Z,29.28
2023-04-27T00:47:13.507Z,29.19
2023-04-27T00:48:13.581Z,29.27
2023-04-27T00:49:13.910Z,29.21
2023-04-27T00:50:13.683Z,29.09
2023-04-27T00:51:13.726Z,29.09
2023-04-27T00:52:13.782Z,29.06
2023-04-27T00:53:13.861Z,29.09
2023-04-27T00:54:13.914Z,29.06
2023-04-27T00:55:13.975Z,29.11
2023-04-27T00:56:13.988Z,29.15
2023-04-27T00:57:14.068Z,29.15
2023-04-27T00:58:14.099Z,29.14
2023-04-27T00:59:14.363Z,29.12
2023-04-27T01:00:14.235Z,29.12
2023-04-27T01:01:14.311Z,29.12
2023-04-27T01:02:14.359Z,29.12
2023-04-27T01:03:14.590Z,29.12
2023-04-27T01:04:14.627Z,29.17
2023-04-27T01:05:14.832Z,29.17
2023-04-27T01:06:14.515Z,29.16
2023-04-27T01:07:14.556Z,29.14
2023-04-27T01:08:14.623Z,29.14
2023-04-27T01:09:14.965Z,29.17
2023-04-27T01:10:14.724Z,29.16
2023-04-27T01:11:14.771Z,29.18
2023-04-27T01:12:14.849Z,29.21
2023-04-27T01:13:14.902Z,29.18
2023-04-27T01:14:14.919Z,29.16
2023-04-27T01:15:14.997Z,29.20
2023-04-27T01:16:15.045Z,29.16
2023-04-27T01:17:15.110Z,29.24
2023-04-27T01:18:15.139Z,29.17
2023-04-27T01:19:15.346Z,29.20
2023-04-27T01:20:15.265Z,29.17
2023-04-27T01:21:15.305Z,29.18
2023-04-27T01:22:15.413Z,29.19
2023-04-27T01:23:17.092Z,29.20
2023-04-27T01:24:15.507Z,29.25
2023-04-27T01:25:15.614Z,29.27
2023-04-27T01:26:15.623Z,29.32
2023-04-27T01:27:15.703Z,29.30
2023-04-27T01:28:15.712Z,29.25
2023-04-27T01:29:15.839Z,29.27
2023-04-27T01:30:15.839Z,29.25
2023-04-27T01:31:15.908Z,29.28
2023-04-27T01:32:15.946Z,29.36
2023-04-27T01:33:16.124Z,29.31
2023-04-27T01:34:16.066Z,29.28
2023-04-27T01:35:16.133Z,29.25
2023-04-27T01:36:16.170Z,29.31
2023-04-27T01:37:16.228Z,29.28
2023-04-27T01:38:16.325Z,29.38
2023-04-27T01:39:16.420Z,29.42
2023-04-27T01:40:16.411Z,29.34
2023-04-27T01:41:16.424Z,29.40
2023-04-27T01:42:16.497Z,29.34
2023-04-27T01:43:16.552Z,29.36
2023-04-27T01:44:16.648Z,29.31
2023-04-27T01:45:16.694Z,29.36
2023-04-27T01:46:16.717Z,29.28
2023-04-27T01:47:16.772Z,29.49
2023-04-27T01:48:16.797Z,29.39
2023-04-27T01:49:17.060Z,29.31
2023-04-27T01:50:16.914Z,29.34
2023-04-27T01:51:16.982Z,29.33
2023-04-27T01:52:17.122Z,29.36
2023-04-27T01:53:17.086Z,29.36
2023-04-27T01:54:17.133Z,29.47
2023-04-27T01:55:17.198Z,29.36
2023-04-27T01:56:17.261Z,29.37
2023-04-27T01:57:17.302Z,29.40
2023-04-27T01:58:17.360Z,29.34
2023-04-27T01:59:17.448Z,29.36
2023-04-27T02:00:17.470Z,29.34
2023-04-27T02:01:17.575Z,29.38
2023-04-27T02:02:17.580Z,29.37
2023-04-27T02:03:17.823Z,29.33
2023-04-27T02:04:17.937Z,29.31
2023-04-27T02:05:17.820Z,29.41
2023-04-27T02:06:17.769Z,29.42
2023-04-27T02:07:17.881Z,29.35
2023-04-27T02:08:17.909Z,29.36
2023-04-27T02:09:18.006Z,29.38
2023-04-27T02:10:18.014Z,29.37
2023-04-27T02:11:18.048Z,29.43
2023-04-27T02:12:18.105Z,29.39
2023-04-27T02:13:18.142Z,29.43
2023-04-27T02:14:18.218Z,29.38
2023-04-27T02:15:18.275Z,29.39
2023-04-27T02:16:18.400Z,29.37
2023-04-27T02:17:18.375Z,29.36
2023-04-27T02:18:18.453Z,29.40
2023-04-27T02:19:18.534Z,29.39
2023-04-27T02:20:18.835Z,29.47
2023-04-27T02:21:18.653Z,29.48
2023-04-27T02:22:18.676Z,29.51
2023-04-27T02:23:18.698Z,29.42
2023-04-27T02:24:18.753Z,29.42
2023-04-27T02:25:18.808Z,29.45
2023-04-27T02:26:18.861Z,29.43
2023-04-27T02:27:18.896Z,29.47
2023-04-27T02:28:18.958Z,29.45
2023-04-27T02:29:19.002Z,29.45
2023-04-27T02:30:19.073Z,29.40
2023-04-27T02:31:19.140Z,29.42
2023-04-27T02:32:19.151Z,29.46
2023-04-27T02:33:19.205Z,29.42
2023-04-27T02:34:19.251Z,29.45
2023-04-27T02:35:19.318Z,29.48
2023-04-27T02:36:19.387Z,29.46
2023-04-27T02:37:19.405Z,29.45
2023-04-27T02:38:19.492Z,29.45
2023-04-27T02:39:19.507Z,29.46
2023-04-27T02:40:19.576Z,29.43
2023-04-27T02:41:19.607Z,29.46
2023-04-27T02:42:19.703Z,29.49
2023-04-27T02:43:19.696Z,29.49
2023-04-27T02:44:19.801Z,29.48
2023-04-27T02:45:19.818Z,29.45
2023-04-27T02:46:19.868Z,29.48
2023-04-27T02:47:19.907Z,29.51
2023-04-27T02:48:19.972Z,29.50
2023-04-27T02:49:20.026Z,29.47
2023-04-27T02:50:20.120Z,29.55
2023-04-27T02:51:20.125Z,29.58
2023-04-27T02:52:20.149Z,29.55
2023-04-27T02:53:20.336Z,29.58
2023-04-27T02:54:20.287Z,29.52
2023-04-27T02:55:20.358Z,29.52
2023-04-27T02:56:20.376Z,29.48
2023-04-27T02:57:20.450Z,29.52
2023-04-27T02:58:20.510Z,29.53
2023-04-27T02:59:20.576Z,29.50
2023-04-27T03:00:20.693Z,29.54
2023-04-27T03:01:20.772Z,29.53
2023-04-27T03:02:20.842Z,29.58
2023-04-27T03:03:20.885Z,29.68
2023-04-27T03:04:21.000Z,29.66
2023-04-27T03:05:20.902Z,29.58
2023-04-27T03:06:20.964Z,29.58
2023-04-27T03:07:21.045Z,29.59
2023-04-27T03:08:21.064Z,29.59
2023-04-27T03:09:21.098Z,29.60
2023-04-27T03:10:21.209Z,29.65
2023-04-27T03:11:21.221Z,29.58
2023-04-27T03:12:21.340Z,29.61
2023-04-27T03:13:21.338Z,29.58
2023-04-27T03:14:21.426Z,29.63
2023-04-27T03:15:21.493Z,29.62
2023-04-27T03:16:21.536Z,29.69
2023-04-27T03:17:21.583Z,29.69
2023-04-27T03:18:21.609Z,29.74
2023-04-27T03:19:21.666Z,29.74
2023-04-27T03:20:21.752Z,29.64
2023-04-27T03:21:21.768Z,29.65
2023-04-27T03:22:21.830Z,29.63
2023-04-27T03:23:21.891Z,29.63
2023-04-27T03:24:21.955Z,29.64
2023-04-27T03:25:21.985Z,29.68
2023-04-27T03:26:22.057Z,29.67
2023-04-27T03:27:22.135Z,29.72
2023-04-27T03:28:22.188Z,29.69
2023-04-27T03:29:22.197Z,29.71
2023-04-27T03:30:22.279Z,29.65
2023-04-27T03:31:22.371Z,29.63
2023-04-27T03:32:22.414Z,29.64
2023-04-27T03:33:22.441Z,29.64
2023-04-27T03:34:22.501Z,29.64
2023-04-27T03:35:22.604Z,29.66
2023-04-27T03:36:22.651Z,29.67
2023-04-27T03:37:22.715Z,29.66
2023-04-27T03:38:22.800Z,29.64
2023-04-27T03:39:22.793Z,29.66
2023-04-27T03:40:22.873Z,29.64
2023-04-27T03:41:23.019Z,29.75
2023-04-27T03:42:23.001Z,29.70
2023-04-27T03:43:23.021Z,29.71
2023-04-27T03:44:23.101Z,29.68
2023-04-27T03:45:23.179Z,29.64
2023-04-27T03:46:23.303Z,29.62
2023-04-27T03:47:23.320Z,29.67
2023-04-27T03:48:23.335Z,29.71
2023-04-27T03:49:23.398Z,29.75
2023-04-27T03:50:23.420Z,29.69
2023-04-27T03:51:23.498Z,29.68
2023-04-27T03:52:23.566Z,29.69
2023-04-27T03:53:23.616Z,29.70
2023-04-27T03:54:23.716Z,29.68
2023-04-27T03:55:23.712Z,29.69
2023-04-27T03:56:23.761Z,29.69
2023-04-27T03:57:23.817Z,29.79
2023-04-27T03:58:23.954Z,29.79
2023-04-27T03:59:23.953Z,29.80
2023-04-27T04:00:24.033Z,29.78
2023-04-27T04:01:24.098Z,29.77
2023-04-27T04:02:24.226Z,29.75
2023-04-27T04:03:24.227Z,29.71
2023-04-27T04:04:24.371Z,29.77
2023-04-27T04:05:24.290Z,29.74
2023-04-27T04:06:24.334Z,29.74
2023-04-27T04:07:24.357Z,29.71
2023-04-27T04:08:24.478Z,29.76
2023-04-27T04:09:24.499Z,29.76
2023-04-27T04:10:24.569Z,29.75
2023-04-27T04:11:24.615Z,29.73
2023-04-27T04:12:24.696Z,29.86
2023-04-27T04:13:24.717Z,29.79
2023-04-27T04:14:24.791Z,29.78
2023-04-27T04:15:24.870Z,29.74
2023-04-27T04:16:24.915Z,29.79
2023-04-27T04:17:24.979Z,29.74
2023-04-27T04:18:24.996Z,29.81
2023-04-27T04:19:25.145Z,29.77
2023-04-27T04:20:25.120Z,29.84
2023-04-27T04:21:25.161Z,29.83
2023-04-27T04:22:25.303Z,29.77
2023-04-27T04:23:25.340Z,29.75
2023-04-27T04:24:25.371Z,29.78
2023-04-27T04:25:25.410Z,29.79
2023-04-27T04:26:25.469Z,29.79
2023-04-27T04:27:25.531Z,29.85
2023-04-27T04:28:25.567Z,29.86
2023-04-27T04:29:25.643Z,29.81
2023-04-27T04:30:25.688Z,29.82
2023-04-27T04:31:25.764Z,29.79
2023-04-27T04:32:25.967Z,29.82
2023-04-27T04:33:25.898Z,29.85
2023-04-27T04:34:25.907Z,29.92
2023-04-27T04:35:26.008Z,29.92
2023-04-27T04:36:26.019Z,29.86
2023-04-27T04:37:26.137Z,29.85
2023-04-27T04:38:26.141Z,29.86
2023-04-27T04:39:26.217Z,29.80
2023-04-27T04:40:26.296Z,29.87
2023-04-27T04:41:26.467Z,29.88
2023-04-27T04:42:26.407Z,29.93
2023-04-27T04:43:26.446Z,29.90
2023-04-27T04:44:26.509Z,29.90
2023-04-27T04:45:26.541Z,29.85
2023-04-27T04:46:26.633Z,29.84
2023-04-27T04:47:26.740Z,29.87
2023-04-27T04:48:26.687Z,29.97
2023-04-27T04:49:26.769Z,29.94
2023-04-27T04:50:26.833Z,29.94
2023-04-27T04:51:26.863Z,29.89
2023-04-27T04:52:26.922Z,29.91
2023-04-27T04:53:26.989Z,29.90
2023-04-27T04:54:27.077Z,29.86
2023-04-27T04:55:27.076Z,29.87
2023-04-27T04:56:27.134Z,29.92
2023-04-27T04:57:27.215Z,29.88
2023-04-27T04:58:27.284Z,29.88
2023-04-27T04:59:27.332Z,29.87
2023-04-27T05:00:27.385Z,29.89
2023-04-27T05:01:27.495Z,29.86
2023-04-27T05:02:27.639Z,29.97
2023-04-27T05:03:27.715Z,29.91
2023-04-27T05:04:27.682Z,29.91
2023-04-27T05:05:27.674Z,29.87
2023-04-27T05:06:27.713Z,29.87
2023-04-27T05:07:27.780Z,29.92
2023-04-27T05:08:27.878Z,29.93
2023-04-27T05:09:27.915Z,29.92
2023-04-27T05:10:27.921Z,29.87
2023-04-27T05:11:28.023Z,29.87
2023-04-27T05:12:28.061Z,29.89
2023-04-27T05:13:28.104Z,29.89
2023-04-27T05:14:28.170Z,29.90
2023-04-27T05:15:28.236Z,29.92
2023-04-27T05:16:28.272Z,30.00
2023-04-27T05:17:28.329Z,29.96
2023-04-27T05:18:28.375Z,29.94
2023-04-27T05:19:28.424Z,29.92
2023-04-27T05:20:28.493Z,29.89
2023-04-27T05:21:28.496Z,29.90
2023-04-27T05:22:28.556Z,29.92
2023-04-27T05:23:28.633Z,29.97
2023-04-27T05:24:28.694Z,29.94
2023-04-27T05:25:28.721Z,29.90
2023-04-27T05:26:28.788Z,29.97
2023-04-27T05:27:28.853Z,29.90
2023-04-27T05:28:28.933Z,29.94
2023-04-27T05:29:29.101Z,29.96
2023-04-27T05:30:29.072Z,29.94
2023-04-27T05:31:29.097Z,29.92
2023-04-27T05:32:29.212Z,29.96
2023-04-27T05:33:29.182Z,29.94
2023-04-27T05:34:29.976Z,29.96
2023-04-27T05:35:29.264Z,30.03
2023-04-27T05:36:29.362Z,30.13
2023-04-27T05:37:29.361Z,30.40
2023-04-27T05:38:29.448Z,30.73
2023-04-27T05:39:29.513Z,31.08
2023-04-27T05:40:29.532Z,31.52
2023-04-27T05:41:29.544Z,31.58
2023-04-27T05:42:30.533Z,31.88
2023-04-27T05:43:29.667Z,32.08
2023-04-27T05:44:29.687Z,32.42
2023-04-27T05:45:29.732Z,32.61
2023-04-27T05:46:29.819Z,32.81
2023-04-27T05:47:29.793Z,33.11
2023-04-27T05:48:29.860Z,32.80
2023-04-27T05:49:29.911Z,32.83
2023-04-27T05:50:29.957Z,32.99
2023-04-27T05:51:29.940Z,33.08
2023-04-27T05:52:30.455Z,33.23
2023-04-27T05:53:29.992Z,33.28
2023-04-27T05:55:27.793Z,32.85
2023-04-27T05:56:27.735Z,31.97
2023-04-27T05:57:27.631Z,31.69
2023-04-27T05:58:27.659Z,31.92
2023-04-27T05:59:27.610Z,31.58
2023-04-27T06:00:27.615Z,32.01
2023-04-27T06:01:27.620Z,31.68
2023-04-27T06:02:27.731Z,31.84
2023-04-27T06:03:27.709Z,32.08
2023-04-27T06:04:27.773Z,32.21
2023-04-27T06:05:27.591Z,32.22
2023-04-27T06:06:27.572Z,32.35
2023-04-27T06:07:27.572Z,32.89
2023-04-27T06:08:27.616Z,33.16
2023-04-27T06:09:27.547Z,33.12
2023-04-27T06:10:27.566Z,32.71
2023-04-27T06:11:27.516Z,32.63
2023-04-27T06:12:27.560Z,32.45
2023-04-27T06:13:27.902Z,32.60
2023-04-27T06:14:27.562Z,32.48
2023-04-27T06:15:27.516Z,32.37
2023-04-27T06:16:27.552Z,32.34
2023-04-27T06:17:27.592Z,32.29
2023-04-27T06:18:27.496Z,32.44
2023-04-27T06:19:27.472Z,32.72
2023-04-27T06:20:27.538Z,32.75
2023-04-27T06:21:27.627Z,32.92
2023-04-27T06:22:27.608Z,32.92
2023-04-27T06:23:27.662Z,32.99
2023-04-27T06:24:27.750Z,32.99
2023-04-27T06:25:27.772Z,33.09
2023-04-27T06:26:27.812Z,33.43
2023-04-27T06:27:27.865Z,33.55
2023-04-27T06:28:28.062Z,33.39
2023-04-27T06:29:27.986Z,33.21
2023-04-27T06:30:28.019Z,33.40
2023-04-27T06:31:28.072Z,33.39
2023-04-27T06:32:28.165Z,33.64
2023-04-27T06:33:28.167Z,33.46
2023-04-27T06:34:28.168Z,33.88
2023-04-27T06:35:28.262Z,33.94
2023-04-27T06:36:28.299Z,33.99
2023-04-27T06:37:28.317Z,34.17
2023-04-27T06:38:28.301Z,34.22
2023-04-27T06:39:28.412Z,34.24
2023-04-27T06:40:28.495Z,33.82
2023-04-27T06:41:28.416Z,33.48
2023-04-27T06:42:28.391Z,33.42
2023-04-27T06:43:28.819Z,33.34
2023-04-27T06:44:28.427Z,33.22
2023-04-27T06:45:28.453Z,33.28
2023-04-27T06:46:28.540Z,33.26
2023-04-27T06:47:28.495Z,33.43
2023-04-27T06:48:28.621Z,33.42
2023-04-27T06:49:28.594Z,33.55
2023-04-27T06:50:28.644Z,33.67
2023-04-27T06:51:28.691Z,34.02
2023-04-27T06:52:28.758Z,33.87
2023-04-27T06:53:28.671Z,34.02
2023-04-27T06:54:28.673Z,34.03
2023-04-27T06:55:28.682Z,34.17
2023-04-27T06:56:28.704Z,34.19
2023-04-27T06:57:28.703Z,34.31
2023-04-27T06:58:28.708Z,34.43
2023-04-27T06:59:28.774Z,34.68
2023-04-27T07:00:28.741Z,34.58
2023-04-27T07:01:28.884Z,34.78
2023-04-27T07:02:28.819Z,34.76
2023-04-27T07:03:28.940Z,34.77
2023-04-27T07:04:29.000Z,34.73
2023-04-27T07:05:28.859Z,34.95
2023-04-27T07:06:28.838Z,34.97
2023-04-27T07:07:28.866Z,35.03
2023-04-27T07:08:28.874Z,35.27
2023-04-27T07:09:29.107Z,35.52
2023-04-27T07:10:28.900Z,35.47
2023-04-27T07:11:28.919Z,35.32
2023-04-27T07:12:28.917Z,35.60
2023-04-27T07:13:28.916Z,35.71
2023-04-27T07:14:28.948Z,35.73
2023-04-27T07:15:28.951Z,35.70
2023-04-27T07:16:29.001Z,35.74
2023-04-27T07:17:28.993Z,35.90
2023-04-27T07:18:29.355Z,35.80
2023-04-27T07:19:29.042Z,36.00
2023-04-27T07:20:28.965Z,35.93
2023-04-27T07:21:29.051Z,36.25
2023-04-27T07:22:28.967Z,36.18
2023-04-27T07:23:29.404Z,36.21
2023-04-27T07:24:28.988Z,36.27
2023-04-27T07:25:28.948Z,36.34
2023-04-27T07:26:29.445Z,36.37
2023-04-27T07:27:29.134Z,36.49
2023-04-27T07:28:28.942Z,36.63
2023-04-27T07:29:29.177Z,36.57
2023-04-27T07:30:28.946Z,36.80
2023-04-27T07:31:28.981Z,36.88
2023-04-27T07:32:29.137Z,37.00
2023-04-27T07:33:28.981Z,37.30
2023-04-27T07:34:41.189Z,36.58
2023-04-27T07:35:30.025Z,36.38
2023-04-27T07:36:28.957Z,36.45
2023-04-27T07:37:29.021Z,36.24
2023-04-27T07:38:29.340Z,35.64
2023-04-27T07:39:28.958Z,35.39
2023-04-27T07:40:29.855Z,35.19
2023-04-27T07:41:29.407Z,35.14
2023-04-27T07:42:28.905Z,35.13
2023-04-27T07:43:28.911Z,35.04
2023-04-27T07:44:29.002Z,35.13
2023-04-27T07:45:28.905Z,35.21
2023-04-27T07:46:29.452Z,35.20
2023-04-27T07:47:28.894Z,35.20
2023-04-27T07:48:29.443Z,35.11
2023-04-27T07:49:28.844Z,35.20
2023-04-27T07:50:28.831Z,35.23
2023-04-27T07:51:29.003Z,35.02
2023-04-27T07:52:28.861Z,34.98
2023-04-27T07:53:28.959Z,34.93
2023-04-27T07:54:28.812Z,34.96
2023-04-27T07:55:28.828Z,35.08
2023-04-27T07:56:28.818Z,35.11
2023-04-27T07:57:28.828Z,35.05
2023-04-27T07:58:28.812Z,34.97
2023-04-27T07:59:29.430Z,35.03
2023-04-27T08:00:28.783Z,34.90
2023-04-27T08:01:28.801Z,34.88
2023-04-27T08:02:28.904Z,34.92
2023-04-27T08:03:29.109Z,35.02
2023-04-27T08:04:29.115Z,35.02
2023-04-27T08:05:28.990Z,34.79
2023-04-27T08:06:29.448Z,34.75
2023-04-27T08:07:29.146Z,34.80
2023-04-27T08:08:28.769Z,34.95
2023-04-27T08:09:29.086Z,34.83
2023-04-27T08:10:28.728Z,34.78
2023-04-27T08:11:28.760Z,34.68
2023-04-27T08:12:28.700Z,34.70
2023-04-27T08:13:28.698Z,34.78
2023-04-27T08:14:28.721Z,34.65
2023-04-27T08:15:28.698Z,34.63
2023-04-27T08:16:28.733Z,34.56
2023-04-27T08:17:28.704Z,34.67
2023-04-27T08:18:28.650Z,34.64
2023-04-27T08:19:28.644Z,34.68
2023-04-27T08:20:28.658Z,34.68
2023-04-27T08:21:28.723Z,34.72
2023-04-27T08:22:28.678Z,34.73
2023-04-27T08:23:28.631Z,34.82
2023-04-27T08:24:28.622Z,35.00
2023-04-27T08:25:28.636Z,34.94
2023-04-27T08:26:28.636Z,34.93
2023-04-27T08:27:28.592Z,34.91
2023-04-27T08:28:28.613Z,34.82
2023-04-27T08:29:29.328Z,34.78
2023-04-27T08:30:28.584Z,34.78
2023-04-27T08:31:28.899Z,34.79
2023-04-27T08:32:28.607Z,34.85
2023-04-27T08:33:28.558Z,34.75
2023-04-27T08:34:28.568Z,34.62
2023-04-27T08:35:28.552Z,34.61
2023-04-27T08:36:28.561Z,34.64
2023-04-27T08:37:28.529Z,34.56
2023-04-27T08:38:28.655Z,34.55
2023-04-27T08:39:28.521Z,34.60
2023-04-27T08:40:28.534Z,34.51
2023-04-27T08:41:28.550Z,34.51
2023-04-27T08:42:28.497Z,34.60
2023-04-27T08:43:28.786Z,34.75
2023-04-27T08:44:28.506Z,35.09
2023-04-27T08:45:28.516Z,36.10
2023-04-27T08:46:28.845Z,36.00
2023-04-27T08:47:39.136Z,35.80
2023-04-27T08:48:29.480Z,35.72
2023-04-27T08:49:28.467Z,35.83
2023-04-27T08:50:28.472Z,35.94
2023-04-27T08:51:28.522Z,35.66
2023-04-27T08:52:28.452Z,35.80
2023-04-27T08:53:28.445Z,35.89
2023-04-27T08:54:28.412Z,36.05
2023-04-27T08:55:28.417Z,35.79
2023-04-27T08:56:28.427Z,35.99
2023-04-27T08:57:28.398Z,35.88
2023-04-27T08:58:28.411Z,36.12
2023-04-27T08:59:28.385Z,35.81
2023-04-27T09:00:28.375Z,35.78
2023-04-27T09:01:28.404Z,35.68
2023-04-27T09:02:28.410Z,35.85
2023-04-27T09:03:28.434Z,35.86
2023-04-27T09:04:28.516Z,35.90
2023-04-27T09:05:28.395Z,35.88
2023-04-27T09:06:28.475Z,36.01
2023-04-27T09:07:28.767Z,35.88
2023-04-27T09:08:28.339Z,35.76
2023-04-27T09:09:28.342Z,35.91
2023-04-27T09:10:28.478Z,35.63
2023-04-27T09:11:28.333Z,35.86
2023-04-27T09:12:28.325Z,35.78
2023-04-27T09:13:28.321Z,35.76
2023-04-27T09:14:28.293Z,35.72
2023-04-27T09:15:28.267Z,35.79
2023-04-27T09:16:28.531Z,35.72
2023-04-27T09:17:28.358Z,35.64
2023-04-27T09:18:28.304Z,35.67
2023-04-27T09:19:28.309Z,35.74
2023-04-27T09:20:28.245Z,35.64
2023-04-27T09:21:28.232Z,35.64
2023-04-27T09:22:28.299Z,35.75
2023-04-27T09:23:28.216Z,35.66
2023-04-27T09:24:28.209Z,35.61
2023-04-27T09:25:28.214Z,35.53
2023-04-27T09:26:28.184Z,35.65
2023-04-27T09:27:28.219Z,35.71
2023-04-27T09:28:28.188Z,35.65
2023-04-27T09:29:28.208Z,35.58
2023-04-27T09:30:28.258Z,35.60
2023-04-27T09:31:28.236Z,35.69
2023-04-27T09:32:28.179Z,35.65
2023-04-27T09:33:28.192Z,35.45
2023-04-27T09:34:28.159Z,35.43
2023-04-27T09:35:28.157Z,35.41
2023-04-27T09:36:28.133Z,35.50
2023-04-27T09:37:28.122Z,35.35
2023-04-27T09:38:28.117Z,35.42
2023-04-27T09:39:28.129Z,35.44
2023-04-27T09:40:28.135Z,35.41
2023-04-27T09:41:28.125Z,35.41
2023-04-27T09:42:28.104Z,35.31
2023-04-27T09:43:28.099Z,35.44
2023-04-27T09:44:28.076Z,35.32
2023-04-27T09:45:28.089Z,35.37
2023-04-27T09:46:28.124Z,35.41
2023-04-27T09:47:28.107Z,35.36
2023-04-27T09:48:28.041Z,35.26
2023-04-27T09:49:28.089Z,35.31
2023-04-27T09:50:28.014Z,35.25
2023-04-27T09:51:28.193Z,35.29
2023-04-27T09:52:28.059Z,35.24
2023-04-27T09:53:28.123Z,35.22
2023-04-27T09:54:28.115Z,35.24
2023-04-27T09:55:28.121Z,35.16
2023-04-27T09:56:28.128Z,35.17
2023-04-27T09:57:28.138Z,35.19
2023-04-27T09:58:28.186Z,35.23
2023-04-27T09:59:28.195Z,35.11
2023-04-27T10:00:28.163Z,35.07
2023-04-27T10:01:28.204Z,35.16
2023-04-27T10:02:29.561Z,35.11
2023-04-27T10:03:28.442Z,35.05
2023-04-27T10:04:28.422Z,35.05
2023-04-27T10:05:28.374Z,35.03
2023-04-27T10:06:28.280Z,34.98
2023-04-27T10:07:28.249Z,34.97
2023-04-27T10:08:28.311Z,34.96
2023-04-27T10:09:28.280Z,34.92
2023-04-27T10:10:28.322Z,34.93
2023-04-27T10:11:28.312Z,34.87
2023-04-27T10:12:28.332Z,34.85
2023-04-27T10:13:28.310Z,34.89
2023-04-27T10:14:28.314Z,34.84
2023-04-27T10:15:28.285Z,34.83
2023-04-27T10:16:28.318Z,34.81
2023-04-27T10:17:28.315Z,34.75
2023-04-27T10:18:28.298Z,34.75
2023-04-27T10:19:28.301Z,34.73
2023-04-27T10:20:28.298Z,34.72
2023-04-27T10:21:28.300Z,34.69
2023-04-27T10:22:28.302Z,34.69
2023-04-27T10:23:28.895Z,34.71
2023-04-27T10:24:28.295Z,34.66
2023-04-27T10:25:28.321Z,34.64
2023-04-27T10:26:28.299Z,34.63
2023-04-27T10:27:28.300Z,34.62
2023-04-27T10:28:28.318Z,34.60
2023-04-27T10:29:28.337Z,34.63
2023-04-27T10:30:28.304Z,34.60
2023-04-27T10:31:28.411Z,34.57
2023-04-27T10:32:28.364Z,34.58
2023-04-27T10:33:28.321Z,34.57
2023-04-27T10:34:28.456Z,34.56
2023-04-27T10:35:28.370Z,34.57
2023-04-27T10:36:28.357Z,34.57
2023-04-27T10:37:28.349Z,34.56
2023-04-27T10:38:28.349Z,34.54
2023-04-27T10:39:40.017Z,34.56
2023-04-27T10:40:29.318Z,34.52
2023-04-27T10:41:28.419Z,34.53
2023-04-27T10:42:28.548Z,34.50
2023-04-27T10:43:28.907Z,34.48
2023-04-27T10:44:28.337Z,34.50
2023-04-27T10:45:31.164Z,34.47
2023-04-27T10:46:28.620Z,34.47
2023-04-27T10:47:28.290Z,34.43
2023-04-27T10:48:28.274Z,34.46
2023-04-27T10:49:28.252Z,34.44
2023-04-27T10:50:28.342Z,34.42
2023-04-27T10:51:28.249Z,34.46
2023-04-27T10:52:28.241Z,34.39
2023-04-27T10:53:28.229Z,34.40
2023-04-27T10:54:28.251Z,34.40
2023-04-27T10:55:28.220Z,34.38
2023-04-27T10:56:28.215Z,34.36
2023-04-27T10:57:28.199Z,34.32
2023-04-27T10:58:37.735Z,34.37
2023-04-27T10:59:29.205Z,34.36
2023-04-27T11:00:28.182Z,34.33
2023-04-27T11:01:28.244Z,34.31
2023-04-27T11:02:28.236Z,34.33
2023-04-27T11:03:28.229Z,34.30
2023-04-27T11:04:28.175Z,34.30
2023-04-27T11:05:28.156Z,34.29
2023-04-27T11:06:28.156Z,34.28
2023-04-27T11:07:28.143Z,34.31
2023-04-27T11:08:28.179Z,34.32
2023-04-27T11:09:28.241Z,34.25
2023-04-27T11:10:28.273Z,34.26
2023-04-27T11:11:28.395Z,34.28
2023-04-27T11:12:28.411Z,34.26
2023-04-27T11:13:28.456Z,34.27
2023-04-27T11:14:28.443Z,34.26
2023-04-27T11:15:28.462Z,34.24
2023-04-27T11:16:29.686Z,34.27
2023-04-27T11:17:28.538Z,34.25
2023-04-27T11:18:28.499Z,34.26
2023-04-27T11:19:28.498Z,34.25
2023-04-27T11:20:28.478Z,34.28
2023-04-27T11:21:28.996Z,34.24
2023-04-27T11:22:28.504Z,34.27
2023-04-27T11:23:28.488Z,34.26
2023-04-27T11:24:28.958Z,34.27
2023-04-27T11:25:28.476Z,34.27
2023-04-27T11:26:28.949Z,34.29
2023-04-27T11:27:28.463Z,34.29
2023-04-27T11:28:28.416Z,34.30
2023-04-27T11:29:28.441Z,34.27
2023-04-27T11:30:28.423Z,34.28
2023-04-27T11:31:28.534Z,34.30
2023-04-27T11:32:28.986Z,34.28
2023-04-27T11:33:28.413Z,34.25
2023-04-27T11:34:28.378Z,34.25
2023-04-27T11:35:28.949Z,34.24
2023-04-27T11:36:28.420Z,34.22
2023-04-27T11:37:28.408Z,34.21
2023-04-27T11:38:28.390Z,34.18
2023-04-27T11:39:28.404Z,34.19
2023-04-27T11:40:28.397Z,34.21
2023-04-27T11:41:28.356Z,34.15
2023-04-27T11:42:28.569Z,34.16
2023-04-27T11:43:28.526Z,34.18
2023-04-27T11:44:28.319Z,34.15
2023-04-27T11:45:28.326Z,34.15
2023-04-27T11:46:28.349Z,34.13
2023-04-27T11:47:28.346Z,34.15
2023-04-27T11:48:28.318Z,34.15
2023-04-27T11:49:28.299Z,34.20
2023-04-27T11:50:28.371Z,34.14
2023-04-27T11:51:28.271Z,34.11
2023-04-27T11:52:28.307Z,34.13
2023-04-27T11:53:28.395Z,34.14
2023-04-27T11:54:28.449Z,34.13
2023-04-27T11:55:28.492Z,34.13
2023-04-27T11:56:28.540Z,34.14
2023-04-27T11:57:28.613Z,34.12
2023-04-27T11:58:28.669Z,34.11
2023-04-27T11:59:28.985Z,34.14
2023-04-27T12:00:28.786Z,34.13
2023-04-27T12:01:37.776Z,34.14
2023-04-27T12:02:29.932Z,34.11
2023-04-27T12:03:29.071Z,34.11
2023-04-27T12:04:29.089Z,34.10
2023-04-27T12:05:29.057Z,34.10
2023-04-27T12:06:33.106Z,34.08
2023-04-27T12:07:28.845Z,34.12
2023-04-27T12:08:28.808Z,34.10
2023-04-27T12:09:28.851Z,34.10
2023-04-27T12:10:28.794Z,34.13
2023-04-27T12:11:28.789Z,34.11
2023-04-27T12:12:28.882Z,34.11
2023-04-27T12:13:28.787Z,34.13
2023-04-27T12:14:28.821Z,34.11
2023-04-27T12:15:28.781Z,34.09
2023-04-27T12:16:28.912Z,34.12
2023-04-27T12:17:28.944Z,34.10
2023-04-27T12:18:28.942Z,34.09
2023-04-27T12:19:29.041Z,34.11
2023-04-27T12:20:29.009Z,34.12
2023-04-27T12:21:29.092Z,34.13
2023-04-27T12:22:29.130Z,34.13
2023-04-27T12:23:29.186Z,34.14
2023-04-27T12:24:29.236Z,34.13
2023-04-27T12:25:29.263Z,34.16
2023-04-27T12:26:29.323Z,34.15
2023-04-27T12:27:29.366Z,34.13
2023-04-27T12:28:29.412Z,34.17
2023-04-27T12:29:29.509Z,34.14
2023-04-27T12:30:29.585Z,34.17
2023-04-27T12:31:29.565Z,34.11
2023-04-27T12:32:29.610Z,34.10
2023-04-27T12:33:29.664Z,34.06
2023-04-27T12:34:29.676Z,34.15
2023-04-27T12:35:29.782Z,34.12
2023-04-27T12:36:29.833Z,34.18
2023-04-27T12:37:29.838Z,34.20
2023-04-27T12:38:29.890Z,34.21
2023-04-27T12:39:29.941Z,34.16
2023-04-27T12:40:30.021Z,34.12
2023-04-27T12:41:30.049Z,34.07
2023-04-27T12:42:30.134Z,34.02
2023-04-27T12:43:30.168Z,34.08
2023-04-27T12:44:30.187Z,34.26
2023-04-27T12:45:30.258Z,34.47
2023-04-27T12:46:30.405Z,34.40
2023-04-27T12:47:49.815Z,34.42
2023-04-27T12:48:31.417Z,34.66
2023-04-27T12:49:30.333Z,34.83
2023-04-27T12:50:30.331Z,35.39
2023-04-27T12:51:30.315Z,35.77
2023-04-27T12:52:30.524Z,35.79
2023-04-27T12:53:30.333Z,35.66